Create Tblcommutelog Verified Points Advance Search
| # | Trip ID | Id Commuter | Trip Date | Trip Num | Current Lat | Current Lng | Delta Distance | Current Time | Activity | Activity Confidence | Current Speed | |
|---|---|---|---|---|---|---|---|---|---|---|---|---|
| 71501 | 250910_773255_16502696_0716 | 773255 | (not set) | (not set) | 38.907094827794 | -77.023878175501 | 1.2912 | 2025-09-10 07:26:48 | on_bicycle | 100 | 2.8476400797518 | |
| 71502 | 250910_783169_16513328_0713 | 783169 | (not set) | (not set) | 39.091868701487 | -77.151310219223 | 5.8907 | 2025-09-10 07:26:49 | in_vehicle | 100 | 9.5487585719778 | |
| 71503 | 250910_714319_16514952_0648 | 714319 | (not set) | (not set) | 38.89557387958 | -77.041731643399 | 20.6664 | 2025-09-10 07:26:49 | in_vehicle | 100 | 5.024721271022 | |
| 71504 | 250910_787830_16413954_0715 | 787830 | (not set) | (not set) | 39.09400974309 | -77.151769143854 | 6.1329 | 2025-09-10 07:26:49 | in_vehicle | 100 | 12.798733984819 | |
| 71505 | 250910_769774_16467722_0722 | 769774 | (not set) | (not set) | 38.899913 | -77.1838774 | 3.8774 | 2025-09-10 07:26:48 | in_vehicle | 100 | 6.736881632945 | |
| 71506 | 250910_782588_16513676_0656 | 782588 | (not set) | (not set) | 39.185152156315 | -76.690280316469 | 7.8035 | 2025-09-10 07:26:50 | in_vehicle | 100 | 5.3331783597236 | |
| 71507 | 250910_788422_16420004_0622 | 788422 | (not set) | (not set) | 39.092252826569 | -76.703787092394 | 29.6585 | 2025-09-10 07:26:50 | in_vehicle | 100 | 15.869893694064 | |
| 71508 | 250910_782588_16513676_0656 | 782588 | (not set) | (not set) | 39.185152156315 | -76.690280316469 | 7.8035 | 2025-09-10 07:26:50 | in_vehicle | 100 | 5.3331783597236 | |
| 71509 | 250910_766519_16500126_0722 | 766519 | (not set) | (not set) | 39.092403625055 | -77.151541300188 | 2.0461 | 2025-09-10 07:26:50 | unknown | 100 | 9.4369987572309 | |
| 71510 | 250910_785415_16477364_0659 | 785415 | (not set) | (not set) | 39.320253784137 | -76.623575129073 | 3.543 | 2025-09-10 07:26:50 | in_vehicle | 100 | 0 | |
| 71511 | 250910_758717_16480986_0704 | 758717 | (not set) | (not set) | 39.432574103989 | -76.634055900751 | 20.7799 | 2025-09-10 07:26:51 | in_vehicle | 100 | 9.0972489204002 | |
| 71512 | 250910_758717_16480986_0704 | 758717 | (not set) | (not set) | 39.432574103989 | -76.634055900751 | 20.7799 | 2025-09-10 07:26:51 | in_vehicle | 100 | 9.0972489204002 | |
| 71513 | 250910_788488_16514391_0725 | 788488 | (not set) | (not set) | 39.208083592517 | -76.710556923418 | 0.5382 | 2025-09-10 07:26:50 | in_vehicle | 100 | 7.501318765814 | |
| 71514 | 250910_772259_16460160_0723 | 772259 | (not set) | (not set) | 39.0449195 | -77.1119705 | 0.7025 | 2025-09-10 07:26:51 | in_vehicle | 100 | 0 | |
| 71515 | 250910_786079_16514446_0712 | 786079 | (not set) | (not set) | 39.33961462269 | -76.598892885806 | 3.83 | 2025-09-10 07:26:51 | unknown | 100 | 6.4060725812941 | |
| 71516 | 250910_731669_16507744_0703 | 731669 | (not set) | (not set) | 38.748253339316 | -77.48712829356 | 7.8135 | 2025-09-10 07:26:52 | in_vehicle | 100 | 7.6667232916395 | |
| 71517 | 250910_787783_6461772_0709 | 787783 | (not set) | (not set) | 38.827858439335 | -77.118062956275 | 15.7754 | 2025-09-10 07:26:52 | in_vehicle | 100 | 13.715164465743 | |
| 71518 | 250910_783088_16490204_0709 | 783088 | (not set) | (not set) | 38.85002727681 | -77.076635196915 | 9.279 | 2025-09-10 07:26:52 | in_vehicle | 100 | 12.771911629279 | |
| 71519 | 250910_785674_6441454_0654 | 785674 | (not set) | (not set) | 39.212200220829 | -77.276571161898 | 18.3158 | 2025-09-10 07:26:52 | in_vehicle | 100 | 13.768809176822 | |
| 71520 | 250910_765177_16513129_0656 | 765177 | (not set) | (not set) | 39.595045078485 | -76.960550102905 | 9.2472 | 2025-09-10 07:26:53 | in_vehicle | 100 | 5.0828363746904 |